Cantaura, Venezuela
Current Conditions -  °F | °C
As of 1:00 PM on Sunday 21 Dec 2014 (Local Time) from SVBC Reporting Station
Scattered Clouds Scattered Clouds  
Wind Chill: 95°   Ceiling: Unl
Heat Index: 107°   Visibility: 6mi
Dew Point: 75°   Wind: 12mph
Humidity: 53%   Direction: 20°NNE
Pressure: 29.94"   Gusts: NA
Location:  9.31°N, 64.37°W
Report Text: SVBC 211700Z 02010KT 9999 SCT010 35/24 Q1014
Loading
Personal Weather Stations






























Interactive Weather Map New forecast layout! Learn more

10-Day Weather Forecast

Advertisements
Track Severe Weather on mobile